Terminal Aerodrome Forecast
Issued by NWS Bismarck, ND

Home | Current Version | Previous Version | Text Only | Print | Product List | Glossary Off
Versions: 1 2 3 4 5 6 7 8 9 10 11 12 13 14 15 16 17 18 19 20 21

000
FTUS43 KBIS 230243 AAB
TAFBIS
TAF AMD
KBIS 230243Z 2303/2324 10013KT P6SM SHRA OVC070
      TEMPO 2303/2307 5SM -TSRA OVC040CB
     FM230900 10010G16KT P6SM SHRA VCTS BKN050CB
     FM231600 18007KT P6SM SHRA VCTS BKN030CB
     FM231800 29013KT P6SM SCT090=

USA.gov is the U.S. government's official web portal to all federal, state and local government web resources and services.